sensor_id;sensor_type;location;lat;lon;timestamp;temperature;humidity
39099;DHT22;24844;52.380;7.018;2023-11-21T00:00:05;10.00;99.90
39099;DHT22;24844;52.380;7.018;2023-11-21T00:02:35;10.10;99.90
39099;DHT22;24844;52.380;7.018;2023-11-21T00:05:02;10.00;99.90
39099;DHT22;24844;52.380;7.018;2023-11-21T00:07:28;10.00;99.90
39099;DHT22;24844;52.380;7.018;2023-11-21T00:09:54;10.00;99.90
39099;DHT22;24844;52.380;7.018;2023-11-21T00:12:21;10.00;99.90
39099;DHT22;24844;52.380;7.018;2023-11-21T00:14:47;10.00;99.90
39099;DHT22;24844;52.380;7.018;2023-11-21T00:17:12;10.00;99.90
39099;DHT22;24844;52.380;7.018;2023-11-21T00:19:38;10.20;99.90
39099;DHT22;24844;52.380;7.018;2023-11-21T00:22:04;10.20;99.90
39099;DHT22;24844;52.380;7.018;2023-11-21T00:24:29;10.00;99.90
39099;DHT22;24844;52.380;7.018;2023-11-21T00:26:55;10.10;99.90
39099;DHT22;24844;52.380;7.018;2023-11-21T00:29:20;10.00;99.90
39099;DHT22;24844;52.380;7.018;2023-11-21T00:31:46;10.20;99.90
39099;DHT22;24844;52.380;7.018;2023-11-21T00:34:12;10.10;99.90
39099;DHT22;24844;52.380;7.018;2023-11-21T00:36:38;10.10;99.90
39099;DHT22;24844;52.380;7.018;2023-11-21T00:39:04;10.10;99.90
39099;DHT22;24844;52.380;7.018;2023-11-21T00:41:31;10.00;99.90
39099;DHT22;24844;52.380;7.018;2023-11-21T00:43:57;9.90;99.90
39099;DHT22;24844;52.380;7.018;2023-11-21T00:46:22;9.90;99.90
39099;DHT22;24844;52.380;7.018;2023-11-21T00:48:49;9.60;99.90
39099;DHT22;24844;52.380;7.018;2023-11-21T00:51:15;9.60;99.90
39099;DHT22;24844;52.380;7.018;2023-11-21T00:53:40;9.70;99.90
39099;DHT22;24844;52.380;7.018;2023-11-21T00:56:06;9.50;99.90
39099;DHT22;24844;52.380;7.018;2023-11-21T00:58:34;9.60;99.90
39099;DHT22;24844;52.380;7.018;2023-11-21T01:00:59;9.50;99.90
39099;DHT22;24844;52.380;7.018;2023-11-21T01:03:25;9.50;99.90
39099;DHT22;24844;52.380;7.018;2023-11-21T01:05:50;9.30;99.90
39099;DHT22;24844;52.380;7.018;2023-11-21T01:08:16;9.10;99.90
39099;DHT22;24844;52.380;7.018;2023-11-21T01:10:41;9.20;99.90
39099;DHT22;24844;52.380;7.018;2023-11-21T01:13:07;9.20;99.90
39099;DHT22;24844;52.380;7.018;2023-11-21T01:15:34;9.30;99.90
39099;DHT22;24844;52.380;7.018;2023-11-21T01:17:59;9.40;99.90
39099;DHT22;24844;52.380;7.018;2023-11-21T01:20:25;9.60;99.90
39099;DHT22;24844;52.380;7.018;2023-11-21T01:22:51;9.60;99.90
39099;DHT22;24844;52.380;7.018;2023-11-21T01:25:17;9.60;99.90
39099;DHT22;24844;52.380;7.018;2023-11-21T01:27:43;9.60;99.90
39099;DHT22;24844;52.380;7.018;2023-11-21T01:30:09;9.60;99.90
39099;DHT22;24844;52.380;7.018;2023-11-21T01:32:37;9.70;99.90
39099;DHT22;24844;52.380;7.018;2023-11-21T01:35:03;9.60;99.90
39099;DHT22;24844;52.380;7.018;2023-11-21T01:37:31;9.60;99.90
39099;DHT22;24844;52.380;7.018;2023-11-21T01:39:57;9.70;99.90
39099;DHT22;24844;52.380;7.018;2023-11-21T01:42:22;9.80;99.90
39099;DHT22;24844;52.380;7.018;2023-11-21T01:44:48;9.70;99.90
39099;DHT22;24844;52.380;7.018;2023-11-21T01:47:14;9.70;99.90
39099;DHT22;24844;52.380;7.018;2023-11-21T01:49:43;9.70;99.90
39099;DHT22;24844;52.380;7.018;2023-11-21T01:52:10;9.70;99.90
39099;DHT22;24844;52.380;7.018;2023-11-21T01:54:36;9.70;99.90
39099;DHT22;24844;52.380;7.018;2023-11-21T01:57:04;9.80;99.90
39099;DHT22;24844;52.380;7.018;2023-11-21T01:59:37;9.70;99.90
39099;DHT22;24844;52.380;7.018;2023-11-21T02:02:04;9.70;99.90
39099;DHT22;24844;52.380;7.018;2023-11-21T02:04:34;9.60;99.90
39099;DHT22;24844;52.380;7.018;2023-11-21T02:07:00;9.50;99.90
39099;DHT22;24844;52.380;7.018;2023-11-21T02:09:27;9.40;99.90
39099;DHT22;24844;52.380;7.018;2023-11-21T02:11:53;9.40;99.90
39099;DHT22;24844;52.380;7.018;2023-11-21T02:14:20;9.30;99.90
39099;DHT22;24844;52.380;7.018;2023-11-21T02:16:50;9.10;99.90
39099;DHT22;24844;52.380;7.018;2023-11-21T02:19:21;9.00;99.90
39099;DHT22;24844;52.380;7.018;2023-11-21T02:21:56;9.00;99.90
39099;DHT22;24844;52.380;7.018;2023-11-21T02:24:25;9.00;99.90
39099;DHT22;24844;52.380;7.018;2023-11-21T02:26:51;9.00;99.90
39099;DHT22;24844;52.380;7.018;2023-11-21T02:29:20;9.00;99.90
39099;DHT22;24844;52.380;7.018;2023-11-21T02:31:54;9.20;99.90
39099;DHT22;24844;52.380;7.018;2023-11-21T02:34:20;9.30;99.90
39099;DHT22;24844;52.380;7.018;2023-11-21T02:36:46;9.30;99.90
39099;DHT22;24844;52.380;7.018;2023-11-21T02:39:15;9.40;99.90
39099;DHT22;24844;52.380;7.018;2023-11-21T02:41:42;9.20;99.90
39099;DHT22;24844;52.380;7.018;2023-11-21T02:44:08;9.00;99.90
39099;DHT22;24844;52.380;7.018;2023-11-21T02:46:34;8.90;99.90
39099;DHT22;24844;52.380;7.018;2023-11-21T02:49:03;9.00;99.90
39099;DHT22;24844;52.380;7.018;2023-11-21T02:51:30;8.90;99.90
39099;DHT22;24844;52.380;7.018;2023-11-21T02:53:56;9.10;99.90
39099;DHT22;24844;52.380;7.018;2023-11-21T02:56:27;9.30;99.90
39099;DHT22;24844;52.380;7.018;2023-11-21T02:58:55;9.30;99.90
39099;DHT22;24844;52.380;7.018;2023-11-21T03:01:21;9.30;99.90
39099;DHT22;24844;52.380;7.018;2023-11-21T03:03:46;9.40;99.90
39099;DHT22;24844;52.380;7.018;2023-11-21T03:06:13;9.50;99.90
39099;DHT22;24844;52.380;7.018;2023-11-21T03:08:38;9.60;99.90
39099;DHT22;24844;52.380;7.018;2023-11-21T03:11:04;9.70;99.90
39099;DHT22;24844;52.380;7.018;2023-11-21T03:13:29;9.80;99.90
39099;DHT22;24844;52.380;7.018;2023-11-21T03:15:55;9.80;99.90
39099;DHT22;24844;52.380;7.018;2023-11-21T03:18:21;9.90;99.90
39099;DHT22;24844;52.380;7.018;2023-11-21T03:20:51;9.90;99.90
39099;DHT22;24844;52.380;7.018;2023-11-21T03:23:17;10.00;99.90
39099;DHT22;24844;52.380;7.018;2023-11-21T03:25:43;10.00;99.90
39099;DHT22;24844;52.380;7.018;2023-11-21T03:28:08;10.00;99.90
39099;DHT22;24844;52.380;7.018;2023-11-21T03:30:34;10.10;99.90
39099;DHT22;24844;52.380;7.018;2023-11-21T03:32:59;9.90;99.90
39099;DHT22;24844;52.380;7.018;2023-11-21T03:35:25;9.90;99.90
39099;DHT22;24844;52.380;7.018;2023-11-21T03:37:51;10.00;99.90
39099;DHT22;24844;52.380;7.018;2023-11-21T03:40:17;9.80;99.90
39099;DHT22;24844;52.380;7.018;2023-11-21T03:42:42;9.70;99.90
39099;DHT22;24844;52.380;7.018;2023-11-21T03:45:08;9.50;99.90
39099;DHT22;24844;52.380;7.018;2023-11-21T03:47:34;9.30;99.90
39099;DHT22;24844;52.380;7.018;2023-11-21T03:50:00;9.20;99.90
39099;DHT22;24844;52.380;7.018;2023-11-21T03:52:26;9.20;99.90
39099;DHT22;24844;52.380;7.018;2023-11-21T03:54:52;9.30;99.90
39099;DHT22;24844;52.380;7.018;2023-11-21T03:57:18;9.40;99.90
39099;DHT22;24844;52.380;7.018;2023-11-21T03:59:43;9.60;99.90
39099;DHT22;24844;52.380;7.018;2023-11-21T04:02:09;9.70;99.90
39099;DHT22;24844;52.380;7.018;2023-11-21T04:04:35;9.70;99.90
39099;DHT22;24844;52.380;7.018;2023-11-21T04:07:01;9.80;99.90
39099;DHT22;24844;52.380;7.018;2023-11-21T04:09:27;9.90;99.90
39099;DHT22;24844;52.380;7.018;2023-11-21T04:11:53;9.90;99.90
39099;DHT22;24844;52.380;7.018;2023-11-21T04:14:19;10.00;99.90
39099;DHT22;24844;52.380;7.018;2023-11-21T04:16:45;10.00;99.90
39099;DHT22;24844;52.380;7.018;2023-11-21T04:19:10;10.00;99.90
39099;DHT22;24844;52.380;7.018;2023-11-21T04:21:37;10.00;99.90
39099;DHT22;24844;52.380;7.018;2023-11-21T04:24:02;9.90;99.90
39099;DHT22;24844;52.380;7.018;2023-11-21T04:26:28;9.80;99.90
39099;DHT22;24844;52.380;7.018;2023-11-21T04:28:54;9.50;99.90
39099;DHT22;24844;52.380;7.018;2023-11-21T04:31:19;9.60;99.90
39099;DHT22;24844;52.380;7.018;2023-11-21T04:33:45;9.60;99.90
39099;DHT22;24844;52.380;7.018;2023-11-21T04:36:10;9.70;99.90
39099;DHT22;24844;52.380;7.018;2023-11-21T04:38:36;9.70;99.90
39099;DHT22;24844;52.380;7.018;2023-11-21T04:41:02;9.70;99.90
39099;DHT22;24844;52.380;7.018;2023-11-21T04:43:27;9.80;99.90
39099;DHT22;24844;52.380;7.018;2023-11-21T04:45:54;9.80;99.90
39099;DHT22;24844;52.380;7.018;2023-11-21T04:48:19;9.80;99.90
39099;DHT22;24844;52.380;7.018;2023-11-21T04:50:45;9.80;99.90
39099;DHT22;24844;52.380;7.018;2023-11-21T04:53:11;9.80;99.90
39099;DHT22;24844;52.380;7.018;2023-11-21T04:55:38;9.80;99.90
39099;DHT22;24844;52.380;7.018;2023-11-21T04:58:04;9.90;99.90
39099;DHT22;24844;52.380;7.018;2023-11-21T05:00:30;9.90;99.90
39099;DHT22;24844;52.380;7.018;2023-11-21T05:02:56;9.90;99.90
39099;DHT22;24844;52.380;7.018;2023-11-21T05:05:21;9.80;99.90
39099;DHT22;24844;52.380;7.018;2023-11-21T05:07:47;9.70;99.90
39099;DHT22;24844;52.380;7.018;2023-11-21T05:10:14;9.80;99.90
39099;DHT22;24844;52.380;7.018;2023-11-21T05:12:41;9.80;99.90
39099;DHT22;24844;52.380;7.018;2023-11-21T05:15:08;9.80;99.90
39099;DHT22;24844;52.380;7.018;2023-11-21T05:17:37;9.80;99.90
39099;DHT22;24844;52.380;7.018;2023-11-21T05:20:05;9.90;99.90
39099;DHT22;24844;52.380;7.018;2023-11-21T05:22:34;9.70;99.90
39099;DHT22;24844;52.380;7.018;2023-11-21T05:25:00;9.80;99.90
39099;DHT22;24844;52.380;7.018;2023-11-21T05:27:26;9.90;99.90
39099;DHT22;24844;52.380;7.018;2023-11-21T05:29:51;10.00;99.90
39099;DHT22;24844;52.380;7.018;2023-11-21T05:32:17;10.00;99.90
39099;DHT22;24844;52.380;7.018;2023-11-21T05:34:43;10.00;99.90
39099;DHT22;24844;52.380;7.018;2023-11-21T05:37:08;10.00;99.90
39099;DHT22;24844;52.380;7.018;2023-11-21T05:39:34;10.00;99.90
39099;DHT22;24844;52.380;7.018;2023-11-21T05:42:01;10.00;99.90
39099;DHT22;24844;52.380;7.018;2023-11-21T05:44:26;9.80;99.90
39099;DHT22;24844;52.380;7.018;2023-11-21T05:46:52;9.90;99.90
39099;DHT22;24844;52.380;7.018;2023-11-21T05:49:18;10.00;99.90
39099;DHT22;24844;52.380;7.018;2023-11-21T05:51:47;9.90;99.90
39099;DHT22;24844;52.380;7.018;2023-11-21T05:54:12;9.80;99.90
39099;DHT22;24844;52.380;7.018;2023-11-21T05:56:38;9.80;99.90
39099;DHT22;24844;52.380;7.018;2023-11-21T05:59:03;9.90;99.90
39099;DHT22;24844;52.380;7.018;2023-11-21T06:01:29;9.90;99.90
39099;DHT22;24844;52.380;7.018;2023-11-21T06:03:54;9.80;99.90
39099;DHT22;24844;52.380;7.018;2023-11-21T06:06:21;9.80;99.90
39099;DHT22;24844;52.380;7.018;2023-11-21T06:08:48;9.90;99.90
39099;DHT22;24844;52.380;7.018;2023-11-21T06:11:14;10.00;99.90
39099;DHT22;24844;52.380;7.018;2023-11-21T06:13:41;9.90;99.90
39099;DHT22;24844;52.380;7.018;2023-11-21T06:16:07;10.00;99.90
39099;DHT22;24844;52.380;7.018;2023-11-21T06:18:33;10.00;99.90
39099;DHT22;24844;52.380;7.018;2023-11-21T06:20:58;10.10;99.90
39099;DHT22;24844;52.380;7.018;2023-11-21T06:23:26;10.10;99.90
39099;DHT22;24844;52.380;7.018;2023-11-21T06:25:51;10.10;99.90
39099;DHT22;24844;52.380;7.018;2023-11-21T06:28:17;10.10;99.90
39099;DHT22;24844;52.380;7.018;2023-11-21T06:30:43;10.10;99.90
39099;DHT22;24844;52.380;7.018;2023-11-21T06:33:10;10.10;99.90
39099;DHT22;24844;52.380;7.018;2023-11-21T06:35:36;10.10;99.90
39099;DHT22;24844;52.380;7.018;2023-11-21T06:38:02;10.20;99.90
39099;DHT22;24844;52.380;7.018;2023-11-21T06:40:28;10.20;99.90
39099;DHT22;24844;52.380;7.018;2023-11-21T06:42:53;10.20;99.90
39099;DHT22;24844;52.380;7.018;2023-11-21T06:45:19;10.20;99.90
39099;DHT22;24844;52.380;7.018;2023-11-21T06:47:45;10.10;99.90
39099;DHT22;24844;52.380;7.018;2023-11-21T06:50:11;10.20;99.90
39099;DHT22;24844;52.380;7.018;2023-11-21T06:52:37;10.30;99.90
39099;DHT22;24844;52.380;7.018;2023-11-21T06:55:02;10.30;99.90
39099;DHT22;24844;52.380;7.018;2023-11-21T06:57:28;10.30;99.90
39099;DHT22;24844;52.380;7.018;2023-11-21T06:59:54;10.20;99.90
39099;DHT22;24844;52.380;7.018;2023-11-21T07:02:19;10.20;99.90
39099;DHT22;24844;52.380;7.018;2023-11-21T07:04:45;10.30;99.90
39099;DHT22;24844;52.380;7.018;2023-11-21T07:07:11;10.20;99.90
39099;DHT22;24844;52.380;7.018;2023-11-21T07:09:37;10.30;99.90
39099;DHT22;24844;52.380;7.018;2023-11-21T07:12:03;10.40;99.90
39099;DHT22;24844;52.380;7.018;2023-11-21T07:14:31;10.40;99.90
39099;DHT22;24844;52.380;7.018;2023-11-21T07:16:57;10.40;99.90
39099;DHT22;24844;52.380;7.018;2023-11-21T07:19:23;10.40;99.90
39099;DHT22;24844;52.380;7.018;2023-11-21T07:21:48;10.50;99.90
39099;DHT22;24844;52.380;7.018;2023-11-21T07:24:16;10.40;99.90
39099;DHT22;24844;52.380;7.018;2023-11-21T07:26:42;10.50;99.90
39099;DHT22;24844;52.380;7.018;2023-11-21T07:29:08;10.50;99.90
39099;DHT22;24844;52.380;7.018;2023-11-21T07:31:34;10.50;99.90
39099;DHT22;24844;52.380;7.018;2023-11-21T07:34:00;10.50;99.90
39099;DHT22;24844;52.380;7.018;2023-11-21T07:36:26;10.50;99.90
39099;DHT22;24844;52.380;7.018;2023-11-21T07:38:52;10.50;99.90
39099;DHT22;24844;52.380;7.018;2023-11-21T07:41:18;10.50;99.90
39099;DHT22;24844;52.380;7.018;2023-11-21T07:43:47;10.60;99.90
39099;DHT22;24844;52.380;7.018;2023-11-21T07:46:13;10.60;99.90
39099;DHT22;24844;52.380;7.018;2023-11-21T07:48:39;10.60;99.90
39099;DHT22;24844;52.380;7.018;2023-11-21T07:51:05;10.70;99.90
39099;DHT22;24844;52.380;7.018;2023-11-21T07:53:32;10.60;99.90
39099;DHT22;24844;52.380;7.018;2023-11-21T07:56:00;10.70;99.90
39099;DHT22;24844;52.380;7.018;2023-11-21T07:58:27;10.70;99.90
39099;DHT22;24844;52.380;7.018;2023-11-21T08:00:53;10.50;99.90
39099;DHT22;24844;52.380;7.018;2023-11-21T08:03:19;10.50;99.90
39099;DHT22;24844;52.380;7.018;2023-11-21T08:05:44;10.40;99.90
39099;DHT22;24844;52.380;7.018;2023-11-21T08:08:10;10.40;99.90
39099;DHT22;24844;52.380;7.018;2023-11-21T08:10:36;10.40;99.90
39099;DHT22;24844;52.380;7.018;2023-11-21T08:13:02;10.50;99.90
39099;DHT22;24844;52.380;7.018;2023-11-21T08:15:29;10.50;99.90
39099;DHT22;24844;52.380;7.018;2023-11-21T08:17:54;10.30;99.90
39099;DHT22;24844;52.380;7.018;2023-11-21T08:20:20;10.30;99.90
39099;DHT22;24844;52.380;7.018;2023-11-21T08:22:47;10.20;99.90
39099;DHT22;24844;52.380;7.018;2023-11-21T08:25:13;10.20;99.90
39099;DHT22;24844;52.380;7.018;2023-11-21T08:27:39;10.20;99.90
39099;DHT22;24844;52.380;7.018;2023-11-21T08:30:06;10.30;99.90
39099;DHT22;24844;52.380;7.018;2023-11-21T08:32:32;10.20;99.90
39099;DHT22;24844;52.380;7.018;2023-11-21T08:34:59;10.30;99.90
39099;DHT22;24844;52.380;7.018;2023-11-21T08:37:24;10.20;99.90
39099;DHT22;24844;52.380;7.018;2023-11-21T08:39:52;10.30;99.90
39099;DHT22;24844;52.380;7.018;2023-11-21T08:42:18;10.30;99.90
39099;DHT22;24844;52.380;7.018;2023-11-21T08:44:44;10.40;99.90
39099;DHT22;24844;52.380;7.018;2023-11-21T08:47:10;10.30;99.90
39099;DHT22;24844;52.380;7.018;2023-11-21T08:49:35;10.40;99.90
39099;DHT22;24844;52.380;7.018;2023-11-21T08:52:01;10.40;99.90
39099;DHT22;24844;52.380;7.018;2023-11-21T08:54:27;10.40;99.90
39099;DHT22;24844;52.380;7.018;2023-11-21T08:56:54;10.40;99.90
39099;DHT22;24844;52.380;7.018;2023-11-21T08:59:20;10.30;99.90
39099;DHT22;24844;52.380;7.018;2023-11-21T09:01:46;10.30;99.90
39099;DHT22;24844;52.380;7.018;2023-11-21T09:04:12;10.30;99.90
39099;DHT22;24844;52.380;7.018;2023-11-21T09:06:39;10.40;99.90
39099;DHT22;24844;52.380;7.018;2023-11-21T09:09:05;10.50;99.90
39099;DHT22;24844;52.380;7.018;2023-11-21T09:11:34;10.50;99.90
39099;DHT22;24844;52.380;7.018;2023-11-21T09:14:01;10.40;99.90
39099;DHT22;24844;52.380;7.018;2023-11-21T09:16:26;10.60;99.90
39099;DHT22;24844;52.380;7.018;2023-11-21T09:18:52;10.70;99.90
39099;DHT22;24844;52.380;7.018;2023-11-21T09:21:17;10.70;99.90
39099;DHT22;24844;52.380;7.018;2023-11-21T09:23:47;10.90;99.90
39099;DHT22;24844;52.380;7.018;2023-11-21T09:26:13;10.90;99.90
39099;DHT22;24844;52.380;7.018;2023-11-21T09:28:41;11.00;99.90
39099;DHT22;24844;52.380;7.018;2023-11-21T09:31:11;11.00;99.90
39099;DHT22;24844;52.380;7.018;2023-11-21T09:33:37;10.80;99.90
39099;DHT22;24844;52.380;7.018;2023-11-21T09:36:04;10.90;99.90
39099;DHT22;24844;52.380;7.018;2023-11-21T09:38:30;10.90;99.90
39099;DHT22;24844;52.380;7.018;2023-11-21T09:40:56;10.90;99.90
39099;DHT22;24844;52.380;7.018;2023-11-21T09:43:25;10.90;99.90
39099;DHT22;24844;52.380;7.018;2023-11-21T09:45:59;10.90;99.90
39099;DHT22;24844;52.380;7.018;2023-11-21T09:48:26;11.00;99.90
39099;DHT22;24844;52.380;7.018;2023-11-21T09:50:53;11.00;99.90
39099;DHT22;24844;52.380;7.018;2023-11-21T09:53:20;11.10;99.90
39099;DHT22;24844;52.380;7.018;2023-11-21T09:55:48;11.10;99.90
39099;DHT22;24844;52.380;7.018;2023-11-21T09:58:14;10.90;99.90
39099;DHT22;24844;52.380;7.018;2023-11-21T10:00:48;11.00;99.90
39099;DHT22;24844;52.380;7.018;2023-11-21T10:03:15;11.00;99.90
39099;DHT22;24844;52.380;7.018;2023-11-21T10:05:42;11.10;99.90
39099;DHT22;24844;52.380;7.018;2023-11-21T10:08:10;11.20;99.90
39099;DHT22;24844;52.380;7.018;2023-11-21T10:10:37;11.20;99.90
39099;DHT22;24844;52.380;7.018;2023-11-21T10:13:05;11.20;99.90
39099;DHT22;24844;52.380;7.018;2023-11-21T10:15:36;11.10;99.90
39099;DHT22;24844;52.380;7.018;2023-11-21T10:18:06;11.20;99.90
39099;DHT22;24844;52.380;7.018;2023-11-21T10:20:33;11.20;99.90
39099;DHT22;24844;52.380;7.018;2023-11-21T10:22:59;11.10;99.90
39099;DHT22;24844;52.380;7.018;2023-11-21T10:25:27;11.10;99.90
39099;DHT22;24844;52.380;7.018;2023-11-21T10:27:58;11.10;99.90
39099;DHT22;24844;52.380;7.018;2023-11-21T10:32:59;11.00;99.90
39099;DHT22;24844;52.380;7.018;2023-11-21T10:35:38;11.00;99.90
39099;DHT22;24844;52.380;7.018;2023-11-21T10:38:03;11.00;99.90
39099;DHT22;24844;52.380;7.018;2023-11-21T10:40:29;11.00;99.90
39099;DHT22;24844;52.380;7.018;2023-11-21T10:42:55;11.00;99.90
39099;DHT22;24844;52.380;7.018;2023-11-21T10:45:31;10.80;99.90
39099;DHT22;24844;52.380;7.018;2023-11-21T10:47:56;11.00;99.90
39099;DHT22;24844;52.380;7.018;2023-11-21T10:50:23;11.10;99.90
39099;DHT22;24844;52.380;7.018;2023-11-21T10:52:51;11.20;99.90
39099;DHT22;24844;52.380;7.018;2023-11-21T10:55:18;11.20;99.90
39099;DHT22;24844;52.380;7.018;2023-11-21T10:57:49;11.10;99.90
39099;DHT22;24844;52.380;7.018;2023-11-21T11:00:16;10.90;99.90
39099;DHT22;24844;52.380;7.018;2023-11-21T11:02:48;11.20;99.90
39099;DHT22;24844;52.380;7.018;2023-11-21T11:05:16;11.00;99.90
39099;DHT22;24844;52.380;7.018;2023-11-21T11:07:44;10.90;99.90
39099;DHT22;24844;52.380;7.018;2023-11-21T11:10:11;10.80;99.90
39099;DHT22;24844;52.380;7.018;2023-11-21T11:12:40;11.00;99.90
39099;DHT22;24844;52.380;7.018;2023-11-21T11:15:07;10.80;99.90
39099;DHT22;24844;52.380;7.018;2023-11-21T11:17:36;10.60;99.90
39099;DHT22;24844;52.380;7.018;2023-11-21T11:20:04;10.60;99.90
39099;DHT22;24844;52.380;7.018;2023-11-21T11:22:36;10.50;99.90
39099;DHT22;24844;52.380;7.018;2023-11-21T11:25:20;10.20;99.90
39099;DHT22;24844;52.380;7.018;2023-11-21T11:28:03;10.20;99.90
39099;DHT22;24844;52.380;7.018;2023-11-21T11:30:46;10.20;99.90
39099;DHT22;24844;52.380;7.018;2023-11-21T11:33:41;10.40;99.90
39099;DHT22;24844;52.380;7.018;2023-11-21T11:36:32;10.20;99.90
39099;DHT22;24844;52.380;7.018;2023-11-21T11:38:59;10.10;99.90
39099;DHT22;24844;52.380;7.018;2023-11-21T11:41:30;10.20;99.90
39099;DHT22;24844;52.380;7.018;2023-11-21T11:43:58;10.20;99.90
39099;DHT22;24844;52.380;7.018;2023-11-21T11:46:51;10.10;99.90
39099;DHT22;24844;52.380;7.018;2023-11-21T11:49:56;10.30;99.90
39099;DHT22;24844;52.380;7.018;2023-11-21T11:52:42;10.10;99.90
39099;DHT22;24844;52.380;7.018;2023-11-21T11:55:16;10.20;99.90
39099;DHT22;24844;52.380;7.018;2023-11-21T11:57:49;10.20;99.90
39099;DHT22;24844;52.380;7.018;2023-11-21T12:00:43;10.30;99.90
39099;DHT22;24844;52.380;7.018;2023-11-21T12:03:09;10.10;99.90
39099;DHT22;24844;52.380;7.018;2023-11-21T12:05:35;10.30;99.90
39099;DHT22;24844;52.380;7.018;2023-11-21T12:08:05;10.30;99.90
39099;DHT22;24844;52.380;7.018;2023-11-21T12:10:33;10.10;99.90
39099;DHT22;24844;52.380;7.018;2023-11-21T12:13:05;10.20;99.90
39099;DHT22;24844;52.380;7.018;2023-11-21T12:15:33;10.00;99.90
39099;DHT22;24844;52.380;7.018;2023-11-21T12:18:00;10.20;99.90
39099;DHT22;24844;52.380;7.018;2023-11-21T12:20:27;10.30;99.90
39099;DHT22;24844;52.380;7.018;2023-11-21T12:22:54;10.30;99.90
39099;DHT22;24844;52.380;7.018;2023-11-21T12:25:23;10.30;99.90
39099;DHT22;24844;52.380;7.018;2023-11-21T12:27:50;10.40;99.90
39099;DHT22;24844;52.380;7.018;2023-11-21T12:30:17;10.20;99.90
39099;DHT22;24844;52.380;7.018;2023-11-21T12:32:44;10.00;99.90
39099;DHT22;24844;52.380;7.018;2023-11-21T12:35:12;9.80;99.90
39099;DHT22;24844;52.380;7.018;2023-11-21T12:37:39;9.80;99.90
39099;DHT22;24844;52.380;7.018;2023-11-21T12:40:06;9.80;99.90
39099;DHT22;24844;52.380;7.018;2023-11-21T12:42:33;9.90;99.90
39099;DHT22;24844;52.380;7.018;2023-11-21T12:45:25;9.90;99.90
39099;DHT22;24844;52.380;7.018;2023-11-21T12:47:56;10.00;99.90
39099;DHT22;24844;52.380;7.018;2023-11-21T12:50:31;9.60;99.90
39099;DHT22;24844;52.380;7.018;2023-11-21T12:53:11;9.70;99.90
39099;DHT22;24844;52.380;7.018;2023-11-21T12:55:43;9.50;99.90
39099;DHT22;24844;52.380;7.018;2023-11-21T12:58:15;9.50;99.90
39099;DHT22;24844;52.380;7.018;2023-11-21T13:00:48;9.60;99.90
39099;DHT22;24844;52.380;7.018;2023-11-21T13:03:16;9.80;99.90
39099;DHT22;24844;52.380;7.018;2023-11-21T13:05:45;9.90;99.90
39099;DHT22;24844;52.380;7.018;2023-11-21T13:08:12;10.10;99.90
39099;DHT22;24844;52.380;7.018;2023-11-21T13:10:44;10.00;99.90
39099;DHT22;24844;52.380;7.018;2023-11-21T13:13:13;10.00;99.90
39099;DHT22;24844;52.380;7.018;2023-11-21T13:15:53;10.00;99.90
39099;DHT22;24844;52.380;7.018;2023-11-21T13:18:23;9.70;99.90
39099;DHT22;24844;52.380;7.018;2023-11-21T13:20:50;9.50;99.90
39099;DHT22;24844;52.380;7.018;2023-11-21T13:23:16;9.50;99.90
39099;DHT22;24844;52.380;7.018;2023-11-21T13:25:43;9.50;99.90
39099;DHT22;24844;52.380;7.018;2023-11-21T13:28:11;9.70;99.90
39099;DHT22;24844;52.380;7.018;2023-11-21T13:30:36;9.40;99.90
39099;DHT22;24844;52.380;7.018;2023-11-21T13:33:06;9.40;99.90
39099;DHT22;24844;52.380;7.018;2023-11-21T13:35:38;9.30;99.90
39099;DHT22;24844;52.380;7.018;2023-11-21T13:38:09;9.50;99.90
39099;DHT22;24844;52.380;7.018;2023-11-21T13:40:36;9.70;99.90
39099;DHT22;24844;52.380;7.018;2023-11-21T13:43:15;9.50;99.90
39099;DHT22;24844;52.380;7.018;2023-11-21T13:45:42;9.50;99.90
39099;DHT22;24844;52.380;7.018;2023-11-21T13:48:09;9.60;99.90
39099;DHT22;24844;52.380;7.018;2023-11-21T13:50:40;9.40;99.90
39099;DHT22;24844;52.380;7.018;2023-11-21T13:53:14;9.50;99.90
39099;DHT22;24844;52.380;7.018;2023-11-21T13:55:53;9.10;99.90
39099;DHT22;24844;52.380;7.018;2023-11-21T13:58:23;9.00;99.90
39099;DHT22;24844;52.380;7.018;2023-11-21T14:01:08;9.20;99.90
39099;DHT22;24844;52.380;7.018;2023-11-21T14:03:52;9.40;99.90
39099;DHT22;24844;52.380;7.018;2023-11-21T14:06:23;9.40;99.90
39099;DHT22;24844;52.380;7.018;2023-11-21T14:08:58;9.50;99.90
39099;DHT22;24844;52.380;7.018;2023-11-21T14:11:23;9.60;99.90
39099;DHT22;24844;52.380;7.018;2023-11-21T14:13:49;9.30;99.90
39099;DHT22;24844;52.380;7.018;2023-11-21T14:16:15;9.60;99.90
39099;DHT22;24844;52.380;7.018;2023-11-21T14:18:42;9.70;99.90
39099;DHT22;24844;52.380;7.018;2023-11-21T14:21:18;9.50;99.90
39099;DHT22;24844;52.380;7.018;2023-11-21T14:23:44;9.30;99.90
39099;DHT22;24844;52.380;7.018;2023-11-21T14:26:11;9.70;99.90
39099;DHT22;24844;52.380;7.018;2023-11-21T14:28:39;9.80;99.90
39099;DHT22;24844;52.380;7.018;2023-11-21T14:31:05;9.70;99.90
39099;DHT22;24844;52.380;7.018;2023-11-21T14:33:30;9.50;99.90
39099;DHT22;24844;52.380;7.018;2023-11-21T14:35:56;9.30;99.90
39099;DHT22;24844;52.380;7.018;2023-11-21T14:38:23;9.70;99.90
39099;DHT22;24844;52.380;7.018;2023-11-21T14:40:48;9.30;99.90
39099;DHT22;24844;52.380;7.018;2023-11-21T14:43:14;9.40;99.90
39099;DHT22;24844;52.380;7.018;2023-11-21T14:45:41;9.50;99.90
39099;DHT22;24844;52.380;7.018;2023-11-21T14:48:06;9.50;99.90
39099;DHT22;24844;52.380;7.018;2023-11-21T14:50:41;9.40;99.90
39099;DHT22;24844;52.380;7.018;2023-11-21T14:53:08;9.40;99.90
39099;DHT22;24844;52.380;7.018;2023-11-21T14:55:37;9.30;99.90
39099;DHT22;24844;52.380;7.018;2023-11-21T14:58:15;9.10;99.90
39099;DHT22;24844;52.380;7.018;2023-11-21T15:00:48;9.30;99.90
39099;DHT22;24844;52.380;7.018;2023-11-21T15:03:16;9.20;99.90
39099;DHT22;24844;52.380;7.018;2023-11-21T15:06:08;9.20;99.90
39099;DHT22;24844;52.380;7.018;2023-11-21T15:08:57;8.80;99.90
39099;DHT22;24844;52.380;7.018;2023-11-21T15:11:35;8.90;99.90
39099;DHT22;24844;52.380;7.018;2023-11-21T15:14:02;9.00;99.90
39099;DHT22;24844;52.380;7.018;2023-11-21T15:16:33;9.10;99.90
39099;DHT22;24844;52.380;7.018;2023-11-21T15:18:58;9.00;99.90
39099;DHT22;24844;52.380;7.018;2023-11-21T15:21:24;9.00;99.90
39099;DHT22;24844;52.380;7.018;2023-11-21T15:23:50;8.90;99.90
39099;DHT22;24844;52.380;7.018;2023-11-21T15:26:16;8.90;99.90
39099;DHT22;24844;52.380;7.018;2023-11-21T15:28:42;8.80;99.90
39099;DHT22;24844;52.380;7.018;2023-11-21T15:31:07;8.60;99.90
39099;DHT22;24844;52.380;7.018;2023-11-21T15:33:34;8.60;99.90
39099;DHT22;24844;52.380;7.018;2023-11-21T15:36:02;8.70;99.90
39099;DHT22;24844;52.380;7.018;2023-11-21T15:38:29;8.60;99.90
39099;DHT22;24844;52.380;7.018;2023-11-21T15:40:55;8.60;99.90
39099;DHT22;24844;52.380;7.018;2023-11-21T15:43:20;8.80;99.90